aviador You're here:

KAPC Decoded Metar

NAPA in CA, USA
Report Time2017-09-25 22:54:00
UTC Time2017-09-25 23:58:25
Flight Rules vfr VFR
Wind200° at 09 kt
W.Decomp.*RWY 18: 9.0 kt HW 0.8 kt RCW
RWY 24: 5.2 kt HW 7.4 kt LCW
W.Rank200° ranks 1
Current wind is below 200° avg. (9.4)
Visibility9999 m
Phenomena:N/A
Clouds:N/A
Expected CloudBase > 11,600 ft AGL from Temp-Dew spread
CeilingNone
Temp31°C (ISA +16)
Dew Point02°C (16% RH)
Heat Index29.0°C
AAT26.1°C
QNH1010 hPa
Density Alt2,087 ft
Elevation43 ft
Report Wrong Elevation
Raw Report
KAPC 252254Z 20009KT 10SM CLR 31/02 A2984 RMK AO2 SLP096
T03060022=

Extra information for KAPC:More info

Metar Taf Metar & Taf Last 4 Metars F.Rules Stats Wind Profile Meteogram Temp Stats Airport Information Weather charts Add Link Nearby VenuesMetar ALERT Operation Metar Decoded Social comments

AIRNAV info for KAPC